createdAt,value
2018-11-04T00:00:54.704Z,1017.51
2018-11-04T00:01:54.722Z,1017.48
2018-11-04T00:02:54.701Z,1017.44
2018-11-04T00:03:54.726Z,1017.95
2018-11-04T00:04:54.730Z,1017.58
2018-11-04T00:05:54.717Z,1017.65
2018-11-04T00:06:54.755Z,1017.84
2018-11-04T00:07:54.835Z,1017.94
2018-11-04T00:08:54.812Z,1017.85
2018-11-04T00:09:54.731Z,1017.57
2018-11-04T00:10:54.720Z,1017.5
2018-11-04T00:11:54.727Z,1017.58
2018-11-04T00:12:54.748Z,1017.98
2018-11-04T00:13:54.709Z,1018.13
2018-11-04T00:14:54.813Z,1018.18
2018-11-04T00:15:54.723Z,1018.07
2018-11-04T00:16:54.729Z,1018.22
2018-11-04T00:17:54.731Z,1018.38
2018-11-04T00:18:54.731Z,1018.21
2018-11-04T00:19:54.731Z,1018.22
2018-11-04T00:20:54.723Z,1017.92
2018-11-04T00:21:54.732Z,1017.74
2018-11-04T00:22:54.730Z,1017.85
2018-11-04T00:23:54.792Z,1017.98
2018-11-04T00:24:54.749Z,1017.9
2018-11-04T00:25:54.732Z,1018.1
2018-11-04T00:28:14.556Z,1017.44
2018-11-04T00:29:14.562Z,1017.83
2018-11-04T00:30:14.557Z,1017.25
2018-11-04T00:31:14.548Z,1017.2
2018-11-04T00:32:14.558Z,1017.06
2018-11-04T00:33:14.559Z,1017.29
2018-11-04T00:34:14.582Z,1016.98
2018-11-04T00:35:14.572Z,1016.67
2018-11-04T00:36:14.567Z,1016.86
2018-11-04T00:37:14.578Z,1016.9
2018-11-04T00:38:14.558Z,1016.82
2018-11-04T00:39:14.560Z,1017.01
2018-11-04T00:40:14.570Z,1016.61
2018-11-04T00:41:14.597Z,1016.51
2018-11-04T00:42:14.576Z,1016.47
2018-11-04T00:43:14.568Z,1016.71
2018-11-04T00:44:14.586Z,1016.4
2018-11-04T00:45:14.604Z,1016.25
2018-11-04T00:46:14.582Z,1016.51
2018-11-04T00:47:14.594Z,1016.44
2018-11-04T00:48:14.593Z,1016.34
2018-11-04T00:49:14.631Z,1016.53
2018-11-04T00:50:14.596Z,1016.56
2018-11-04T00:51:14.583Z,1016.37
2018-11-04T00:52:14.604Z,1016.36
2018-11-04T00:53:14.598Z,1015.97
2018-11-04T00:54:14.612Z,1015.71
2018-11-04T00:55:14.589Z,1015.52
2018-11-04T00:56:14.590Z,1015.38
2018-11-04T00:57:14.602Z,1015.77
2018-11-04T00:58:14.592Z,1015.96
2018-11-04T00:59:14.600Z,1016.18
2018-11-04T01:00:14.605Z,1015.76
2018-11-04T01:01:14.665Z,1015.37
2018-11-04T01:02:14.631Z,1015.88
2018-11-04T01:03:14.923Z,1015.74
2018-11-04T01:04:14.613Z,1015.49
2018-11-04T01:05:14.636Z,1015.51
2018-11-04T01:06:14.611Z,1015.11
2018-11-04T01:07:14.623Z,1015.5
2018-11-04T01:08:14.608Z,1015.32
2018-11-04T01:09:14.775Z,1015.08
2018-11-04T01:10:14.620Z,1015.39
2018-11-04T01:11:14.623Z,1015.28
2018-11-04T01:12:14.641Z,1015.62
2018-11-04T01:13:14.645Z,1015.54
2018-11-04T01:14:14.621Z,1015.35
2018-11-04T01:15:14.621Z,1015.31
2018-11-04T01:16:14.610Z,1015.5
2018-11-04T01:17:14.635Z,1015.05
2018-11-04T01:18:31.657Z,1014.9
2018-11-04T01:19:31.646Z,1015.12
2018-11-04T01:20:32.251Z,1014.84
2018-11-04T01:21:31.658Z,1014.4
2018-11-04T01:22:31.665Z,1014.17
2018-11-04T01:23:31.678Z,1013.94
2018-11-04T01:24:31.744Z,1013.87
2018-11-04T01:25:31.679Z,1013.82
2018-11-04T01:26:31.638Z,1013.79
2018-11-04T01:27:31.642Z,1013.68
2018-11-04T01:28:31.650Z,1013.63
2018-11-04T01:29:31.651Z,1013.47
2018-11-04T01:30:31.688Z,1013.53
2018-11-04T01:31:31.651Z,1013.3
2018-11-04T01:32:31.651Z,1013.21
2018-11-04T01:33:31.666Z,1013
2018-11-04T01:34:31.688Z,1013
2018-11-04T01:35:31.697Z,1012.83
2018-11-04T01:36:31.663Z,1012.83
2018-11-04T01:37:32.249Z,1013.12
2018-11-04T01:38:31.670Z,1012.57
2018-11-04T01:39:31.677Z,1012.61
2018-11-04T01:40:31.734Z,1012.15
2018-11-04T01:41:31.690Z,1012.14
2018-11-04T01:42:31.674Z,1012.41
2018-11-04T01:43:31.679Z,1012.32
2018-11-04T01:50:10.774Z,1012.24
2018-11-04T01:51:10.744Z,1012.37
2018-11-04T01:52:10.806Z,1012.66
2018-11-04T01:53:10.777Z,1012.53
2018-11-04T01:54:10.746Z,1012.69
2018-11-04T01:55:10.751Z,1012.77
2018-11-04T01:56:10.730Z,1012.79
2018-11-04T01:57:10.747Z,1012.59
2018-11-04T01:58:10.801Z,1012.51
2018-11-04T01:59:10.761Z,1012.55
2018-11-04T02:00:10.766Z,1012.89
2018-11-04T02:01:10.755Z,1012.73
2018-11-04T02:02:10.773Z,1012.58
2018-11-04T02:03:10.746Z,1012.4
2018-11-04T02:04:10.762Z,1012.66
2018-11-04T02:05:10.762Z,1012.55
2018-11-04T02:06:10.771Z,1012.09
2018-11-04T02:07:10.778Z,1012.43
2018-11-04T02:09:30.560Z,1012.41
2018-11-04T02:10:30.527Z,1013.11
2018-11-04T02:11:30.530Z,1012.62
2018-11-04T02:12:30.579Z,1012.63
2018-11-04T02:13:30.516Z,1012.38
2018-11-04T02:14:30.510Z,1012.64
2018-11-04T02:15:30.531Z,1012.84
2018-11-04T02:19:59.594Z,1012.26
2018-11-04T02:20:59.641Z,1012.05
2018-11-04T02:21:59.585Z,1011.97
2018-11-04T02:22:59.609Z,1011.98
2018-11-04T02:23:59.647Z,1012
2018-11-04T02:24:59.588Z,1011.55
2018-11-04T02:25:59.836Z,1011.84
2018-11-04T02:26:59.600Z,1011.95
2018-11-04T02:27:59.613Z,1011.44
2018-11-04T02:28:59.628Z,1011.24
2018-11-04T02:29:59.601Z,1011.21
2018-11-04T02:30:59.595Z,1010.69
2018-11-04T02:31:59.607Z,1010.52
2018-11-04T02:32:59.612Z,1010.44
2018-11-04T02:33:59.611Z,1010.15
2018-11-04T02:34:59.598Z,1010.03
2018-11-04T02:35:59.612Z,1009.93
2018-11-04T02:36:59.612Z,1009.62
2018-11-04T02:37:59.609Z,1009.87
2018-11-04T02:38:59.607Z,1009.59
2018-11-04T02:39:59.612Z,1009.12
2018-11-04T02:40:59.628Z,1009.26
2018-11-04T02:41:59.607Z,1009.01
2018-11-04T02:42:59.630Z,1008.86
2018-11-04T02:43:59.609Z,1008.32
2018-11-04T02:44:59.735Z,1007.71
2018-11-04T02:45:59.632Z,1007.85
2018-11-04T02:46:59.762Z,1007.36
2018-11-04T02:47:59.618Z,1007.03
2018-11-04T02:48:59.945Z,1006.77
2018-11-04T02:49:59.657Z,1006.47
2018-11-04T02:50:59.637Z,1006.23
2018-11-04T02:51:59.624Z,1006.15
2018-11-04T02:52:59.618Z,1005.98
2018-11-04T02:54:16.849Z,1005.75
2018-11-04T02:55:17.033Z,1005.59
2018-11-04T02:56:16.674Z,1004.95
2018-11-04T02:57:16.680Z,1005.3
2018-11-04T02:58:16.678Z,1005.11
2018-11-04T02:59:16.674Z,1005.34
2018-11-04T03:00:16.714Z,1005.39
2018-11-04T03:01:16.695Z,1005.46
2018-11-04T03:02:16.727Z,1005.56
2018-11-04T03:03:16.716Z,1005.47
2018-11-04T03:04:16.741Z,1005.26
2018-11-04T03:05:16.696Z,1005
2018-11-04T03:06:16.702Z,1005.07
2018-11-04T03:07:16.733Z,1005.05
2018-11-04T03:08:16.711Z,1004.82
2018-11-04T03:09:16.698Z,1004.65
2018-11-04T03:10:17.100Z,1004.64
2018-11-04T03:11:16.699Z,1004.54
2018-11-04T03:12:16.718Z,1005.03
2018-11-04T03:13:16.715Z,1004.84
2018-11-04T03:14:16.719Z,1004.54
2018-11-04T03:15:16.718Z,1004.43
2018-11-04T03:16:16.745Z,1004.27
2018-11-04T03:17:17.558Z,1004.53
2018-11-04T03:18:16.713Z,1004.27
2018-11-04T03:19:16.703Z,1004.43
2018-11-04T03:20:16.742Z,1004.64
2018-11-04T03:21:16.750Z,1004.24
2018-11-04T03:22:16.741Z,1004.63
2018-11-04T03:23:16.737Z,1004.6
2018-11-04T03:24:16.785Z,1004.97
2018-11-04T03:25:16.738Z,1004.75
2018-11-04T03:26:16.765Z,1004.83
2018-11-04T03:27:16.816Z,1004.78
2018-11-04T03:28:16.760Z,1004.51
2018-11-04T03:29:16.737Z,1004.75
2018-11-04T03:30:16.743Z,1004.63
2018-11-04T03:31:16.748Z,1004.64
2018-11-04T03:32:16.736Z,1004.43
2018-11-04T03:33:16.739Z,1004.55
2018-11-04T03:34:16.769Z,1004.56
2018-11-04T03:35:16.770Z,1004.61
2018-11-04T03:39:46.264Z,1004.1
2018-11-04T03:40:46.266Z,1004.01
2018-11-04T03:41:46.281Z,1004.06
2018-11-04T03:42:46.246Z,1003.9
2018-11-04T03:43:46.268Z,1004.19
2018-11-04T03:44:46.235Z,1003.9
2018-11-04T03:45:46.243Z,1003.73
2018-11-04T03:46:46.274Z,1003.71
2018-11-04T03:47:46.245Z,1003.72
2018-11-04T03:48:46.261Z,1003.71
2018-11-04T03:49:46.259Z,1003.71
2018-11-04T03:50:46.239Z,1003.94
2018-11-04T03:51:46.251Z,1003.63
2018-11-04T03:52:46.251Z,1003.83
2018-11-04T03:53:46.259Z,1003.53
2018-11-04T03:54:46.265Z,1003.77
2018-11-04T03:55:46.263Z,1003.69
2018-11-04T03:56:46.248Z,1004.06
2018-11-04T03:57:46.272Z,1003.96
2018-11-04T03:58:46.277Z,1004.83
2018-11-04T03:59:46.395Z,1004.56
2018-11-04T04:00:46.277Z,1004.49
2018-11-04T04:01:46.340Z,1004.67
2018-11-04T04:02:46.274Z,1005.28
2018-11-04T04:03:46.263Z,1004.9
2018-11-04T04:04:46.263Z,1005.1
2018-11-04T04:05:47.083Z,1005.18
2018-11-04T04:06:46.283Z,1005.1
2018-11-04T04:07:46.282Z,1005.69
2018-11-04T04:08:46.290Z,1005.8
2018-11-04T04:09:46.283Z,1006.05
2018-11-04T04:10:46.284Z,1006.09
2018-11-04T04:11:53.881Z,1005.88
2018-11-04T04:12:46.285Z,1006.25
2018-11-04T04:13:46.315Z,1006.07
2018-11-04T04:15:03.376Z,1005.5
2018-11-04T04:16:03.353Z,1005.5
2018-11-04T04:17:03.359Z,1005.19
2018-11-04T04:18:04.640Z,1005.2
2018-11-04T04:19:03.345Z,1004.89
2018-11-04T04:20:04.180Z,1004.49
2018-11-04T04:21:03.385Z,1004.34
2018-11-04T04:22:03.370Z,1004.19
2018-11-04T04:23:03.410Z,1004.12
2018-11-04T04:24:03.370Z,1003.69
2018-11-04T04:25:03.382Z,1003.48
2018-11-04T04:26:03.407Z,1003.28
2018-11-04T04:27:03.368Z,1003.2
2018-11-04T04:28:03.374Z,1003.37
2018-11-04T04:29:03.372Z,1003.17
2018-11-04T04:30:03.388Z,1003.11
2018-11-04T04:31:03.364Z,1002.79
2018-11-04T04:32:03.914Z,1002.7
2018-11-04T04:33:03.378Z,1002.27
2018-11-04T04:34:03.387Z,1002.09
2018-11-04T04:35:03.388Z,1001.93
2018-11-04T04:36:03.382Z,1001.85
2018-11-04T04:37:03.371Z,1001.57
2018-11-04T04:38:03.384Z,1000.96
2018-11-04T04:39:03.393Z,1001.21
2018-11-04T04:40:03.391Z,1000.69
2018-11-04T04:41:03.386Z,1000.12
2018-11-04T04:42:03.728Z,1000.06
2018-11-04T04:43:03.376Z,999.98
2018-11-04T04:44:03.424Z,999.89
2018-11-04T04:45:03.404Z,999.9
2018-11-04T04:46:03.573Z,999.52
2018-11-04T04:47:03.394Z,999.39
2018-11-04T04:48:03.408Z,998.91
2018-11-04T04:49:04.082Z,999.23
2018-11-04T04:50:09.501Z,998.87
2018-11-04T04:51:03.398Z,999
2018-11-04T04:52:04.046Z,999.23
2018-11-04T04:53:03.394Z,999.17
2018-11-04T04:54:03.422Z,999.42
2018-11-04T04:55:03.424Z,999.41
2018-11-04T04:56:03.400Z,998.99
2018-11-04T04:57:03.397Z,998.94
2018-11-04T04:58:03.411Z,999.18
2018-11-04T04:59:03.418Z,998.79
2018-11-04T05:00:03.415Z,998.75
2018-11-04T05:01:03.409Z,998.25
2018-11-04T05:02:03.425Z,998.51
2018-11-04T05:03:03.440Z,998.33
2018-11-04T05:04:03.440Z,998.32
2018-11-04T05:05:03.419Z,998.58
2018-11-04T05:06:03.419Z,998.39
2018-11-04T05:07:03.433Z,998.31
2018-11-04T05:08:03.434Z,998.4
2018-11-04T05:09:03.432Z,998.66
2018-11-04T05:10:03.482Z,998.31
2018-11-04T05:11:03.435Z,998.37
2018-11-04T05:12:03.451Z,998.46
2018-11-04T05:13:03.438Z,999.13
2018-11-04T05:14:03.436Z,998.71
2018-11-04T05:15:03.445Z,998.75
2018-11-04T05:16:03.473Z,998.7
2018-11-04T05:17:03.457Z,998.72
2018-11-04T05:18:03.450Z,998.75
2018-11-04T05:19:03.445Z,998.94
2018-11-04T05:20:03.774Z,998.77
2018-11-04T05:21:03.448Z,998.98
2018-11-04T05:22:03.487Z,998.64
2018-11-04T05:23:03.474Z,998.52
2018-11-04T05:24:03.468Z,998.22
2018-11-04T05:25:03.470Z,998.33
2018-11-04T05:26:03.474Z,998.32
2018-11-04T05:27:03.457Z,998.13
2018-11-04T05:28:03.455Z,998.12
2018-11-04T05:29:03.478Z,997.88
2018-11-04T05:30:03.472Z,998.36
2018-11-04T05:31:03.477Z,998.45
2018-11-04T05:32:03.485Z,998.46
2018-11-04T05:33:03.476Z,998.6
2018-11-04T05:34:03.480Z,998.52
2018-11-04T05:35:03.472Z,998.99
2018-11-04T05:36:03.483Z,998.78
2018-11-04T05:37:03.500Z,998.66
2018-11-04T05:38:03.555Z,998.7
2018-11-04T05:39:03.507Z,998.67
2018-11-04T05:40:03.497Z,998.96
2018-11-04T05:41:03.467Z,998.92
2018-11-04T05:42:03.515Z,998.64
2018-11-04T05:43:03.493Z,998.45
2018-11-04T05:44:03.487Z,998.4
2018-11-04T05:45:03.509Z,998.41
2018-11-04T05:46:03.508Z,997.91
2018-11-04T05:47:03.521Z,997.82
2018-11-04T05:48:03.491Z,997.39
2018-11-04T05:49:03.492Z,997.63
2018-11-04T05:50:20.954Z,997.7
2018-11-04T05:51:20.919Z,997.64
2018-11-04T05:52:20.958Z,997.47
2018-11-04T05:53:20.936Z,997.52
2018-11-04T05:54:21.593Z,997.61
2018-11-04T05:55:20.919Z,997.26
2018-11-04T05:56:20.916Z,997.33
2018-11-04T05:57:20.930Z,997.26
2018-11-04T05:58:20.999Z,997.48
2018-11-04T05:59:20.919Z,997.53
2018-11-04T06:00:20.956Z,997.71
2018-11-04T06:01:20.941Z,997.82
2018-11-04T06:02:20.939Z,997.73
2018-11-04T06:03:20.970Z,998.47
2018-11-04T06:04:20.948Z,998.37
2018-11-04T06:05:20.941Z,998.31
2018-11-04T06:06:20.954Z,998.52
2018-11-04T06:07:20.950Z,998.59
2018-11-04T06:08:20.960Z,998.93
2018-11-04T06:09:20.950Z,998.8
2018-11-04T06:10:20.981Z,998.76
2018-11-04T06:11:20.934Z,999.02
2018-11-04T06:12:20.952Z,999.03
2018-11-04T06:13:20.956Z,999.21
2018-11-04T06:14:20.967Z,999.08
2018-11-04T06:15:20.960Z,998.98
2018-11-04T06:16:20.962Z,999.19
2018-11-04T06:17:20.958Z,998.97
2018-11-04T06:18:20.965Z,999.11
2018-11-04T06:19:20.974Z,999.7
2018-11-04T06:20:20.978Z,999.49
2018-11-04T06:21:20.974Z,999.48
2018-11-04T06:22:20.979Z,999.95
2018-11-04T06:23:20.959Z,1000.15
2018-11-04T06:24:21.576Z,1000.33
2018-11-04T06:25:20.982Z,1000.64
2018-11-04T06:26:20.969Z,1000.68
2018-11-04T06:27:20.989Z,1000.57
2018-11-04T06:28:20.971Z,1000.78
2018-11-04T06:29:20.967Z,1000.76
2018-11-04T06:30:38.036Z,1000.99
2018-11-04T06:31:38.011Z,1000.89
2018-11-04T06:32:38.007Z,1001.07
2018-11-04T06:33:38.013Z,1001.05
2018-11-04T06:34:38.106Z,1001.01
2018-11-04T06:35:38.034Z,1001.17
2018-11-04T06:36:37.988Z,1001.13
2018-11-04T06:37:38.013Z,1000.7
2018-11-04T06:38:38.044Z,1000.89
2018-11-04T06:39:38.012Z,1001.29
2018-11-04T06:40:38.099Z,1000.66
2018-11-04T06:41:38.011Z,1000.88
2018-11-04T06:42:38.027Z,1000.74
2018-11-04T06:43:38.015Z,1000.76
2018-11-04T06:44:38.012Z,1000.65
2018-11-04T06:45:38.017Z,1000.82
2018-11-04T06:46:38.046Z,1000.37
2018-11-04T06:47:38.167Z,1000.24
2018-11-04T06:48:38.023Z,999.6
2018-11-04T06:49:38.064Z,999.81
2018-11-04T06:50:38.071Z,999.87
2018-11-04T06:51:38.012Z,999.53
2018-11-04T06:52:38.037Z,999.92
2018-11-04T06:53:38.061Z,1000.22
2018-11-04T06:54:38.049Z,1000.21
2018-11-04T06:55:38.055Z,1000.23
2018-11-04T06:56:38.202Z,1000.51
2018-11-04T06:57:38.029Z,1000.43
2018-11-04T06:58:38.027Z,1000.58
2018-11-04T06:59:38.031Z,1000.61
2018-11-04T07:00:38.071Z,1000.24
2018-11-04T07:01:38.045Z,1000.68
2018-11-04T07:02:38.121Z,1000.5
2018-11-04T07:03:38.091Z,1001.02
2018-11-04T07:04:38.056Z,1001.26
2018-11-04T07:05:38.058Z,1001.36
2018-11-04T07:06:38.067Z,1001.9
2018-11-04T07:07:38.070Z,1001.86
2018-11-04T07:08:38.077Z,1002.06
2018-11-04T07:09:38.053Z,1001.97
2018-11-04T07:10:38.070Z,1001.97
2018-11-04T07:11:38.061Z,1001.96
2018-11-04T07:12:38.054Z,1002.38
2018-11-04T07:13:38.080Z,1002.64
2018-11-04T07:14:38.079Z,1002.81
2018-11-04T07:15:38.084Z,1002.98
2018-11-04T07:16:38.062Z,1003.32
2018-11-04T07:17:38.058Z,1003.55
2018-11-04T07:18:38.146Z,1003.86
2018-11-04T07:19:38.059Z,1004.06
2018-11-04T07:20:38.057Z,1004.15
2018-11-04T07:21:38.131Z,1004.08
2018-11-04T07:22:38.090Z,1004.32
2018-11-04T07:23:38.102Z,1004.27
2018-11-04T07:24:38.083Z,1003.98
2018-11-04T07:25:38.151Z,1004.04
2018-11-04T07:26:38.113Z,1004.1
2018-11-04T07:27:38.076Z,1004.12
2018-11-04T07:28:38.095Z,1004.15
2018-11-04T07:29:38.103Z,1004.15
2018-11-04T07:30:38.094Z,1004.21
2018-11-04T07:31:38.111Z,1004.87
2018-11-04T07:32:38.108Z,1004.97
2018-11-04T07:33:38.079Z,1005.49
2018-11-04T07:34:38.097Z,1005.55
2018-11-04T07:35:38.104Z,1006.11
2018-11-04T07:36:38.106Z,1006.25
2018-11-04T07:37:38.107Z,1006.67
2018-11-04T07:38:38.115Z,1006.75
2018-11-04T07:39:38.268Z,1006.73
2018-11-04T07:40:38.162Z,1007
2018-11-04T07:41:38.108Z,1007.06
2018-11-04T07:42:38.121Z,1007.51
2018-11-04T07:49:17.697Z,1007.86
2018-11-04T07:50:17.695Z,1008.28
2018-11-04T07:51:17.715Z,1008.43
2018-11-04T07:52:17.682Z,1008.78
2018-11-04T07:53:17.677Z,1008.62
2018-11-04T07:54:17.670Z,1009.06
2018-11-04T07:55:17.669Z,1009.07
2018-11-04T07:56:17.686Z,1009.12
2018-11-04T07:57:17.663Z,1009.64
2018-11-04T07:58:17.660Z,1009.84
2018-11-04T07:59:17.703Z,1009.82
2018-11-04T08:00:23.554Z,1010.35
2018-11-04T08:01:18.961Z,1010.91
2018-11-04T08:02:56.480Z,1011.37
2018-11-04T08:03:42.129Z,1011.7
2018-11-04T08:04:38.844Z,1012.05
2018-11-04T08:05:38.843Z,1012.1
2018-11-04T08:06:38.851Z,1012.31
2018-11-04T08:07:38.839Z,1012.39
2018-11-04T08:08:38.829Z,1012.8
2018-11-04T08:09:38.861Z,1013.08
2018-11-04T08:10:38.909Z,1013.03
2018-11-04T08:11:38.838Z,1013.24
2018-11-04T08:12:38.828Z,1013.39
2018-11-04T08:13:38.949Z,1013.83
2018-11-04T08:14:38.827Z,1013.79
2018-11-04T08:15:38.874Z,1013.63
2018-11-04T08:16:38.856Z,1013.98
2018-11-04T08:17:38.840Z,1014.09
2018-11-04T08:18:38.865Z,1013.86
2018-11-04T08:23:08.915Z,1013.78
2018-11-04T08:24:08.928Z,1013.51
2018-11-04T08:25:08.916Z,1013.63
2018-11-04T08:26:08.879Z,1013.78
2018-11-04T08:27:08.927Z,1013.86
2018-11-04T08:28:08.909Z,1013.97
2018-11-04T08:29:08.900Z,1014.06
2018-11-04T08:30:08.925Z,1014.39
2018-11-04T08:31:08.907Z,1014
2018-11-04T08:32:08.903Z,1014.35
2018-11-04T08:33:08.895Z,1015.01
2018-11-04T08:34:08.892Z,1014.85
2018-11-04T08:35:08.918Z,1015.62
2018-11-04T08:36:08.914Z,1015.97
2018-11-04T08:37:08.921Z,1016.25
2018-11-04T08:38:08.937Z,1016.47
2018-11-04T08:39:08.913Z,1016.74
2018-11-04T08:40:09.078Z,1017.26
2018-11-04T08:41:08.913Z,1016.92
2018-11-04T08:42:08.936Z,1017.25
2018-11-04T08:43:09.007Z,1017.43
2018-11-04T08:44:08.919Z,1017.55
2018-11-04T08:45:08.941Z,1017.37
2018-11-04T08:46:08.932Z,1017.67
2018-11-04T08:47:08.982Z,1018.12
2018-11-04T08:48:08.917Z,1018.11
2018-11-04T08:49:08.933Z,1017.81
2018-11-04T08:50:08.941Z,1017.99
2018-11-04T08:51:08.927Z,1017.7
2018-11-04T08:52:08.937Z,1018.01
2018-11-04T08:53:09.293Z,1018.25
2018-11-04T08:54:08.942Z,1018.48
2018-11-04T08:55:08.948Z,1018.51
2018-11-04T08:56:08.930Z,1018.96
2018-11-04T08:57:08.969Z,1019.14
2018-11-04T08:58:08.951Z,1019.34
2018-11-04T08:59:08.934Z,1019.8
2018-11-04T09:00:09.061Z,1020.01
2018-11-04T09:01:08.941Z,1020.38
2018-11-04T09:02:08.945Z,1020.37
2018-11-04T09:03:08.958Z,1020.66
2018-11-04T09:04:08.989Z,1020.81
2018-11-04T09:05:08.959Z,1021.48
2018-11-04T09:06:08.961Z,1021.8
2018-11-04T09:07:08.973Z,1022.23
2018-11-04T09:08:08.958Z,1022.69
2018-11-04T09:09:08.952Z,1023.14
2018-11-04T09:10:09.004Z,1023.09
2018-11-04T09:11:08.969Z,1023.4
2018-11-04T09:12:09.011Z,1023.69
2018-11-04T09:13:09.008Z,1023.35
2018-11-04T09:14:08.992Z,1023.68
2018-11-04T09:15:08.985Z,1023.54
2018-11-04T09:16:08.969Z,1023.92
2018-11-04T09:17:08.979Z,1023.65
2018-11-04T09:18:08.978Z,1023.3
2018-11-04T09:19:09.004Z,1023.17
2018-11-04T09:20:08.969Z,1023.37
2018-11-04T09:21:08.997Z,1023.2
2018-11-04T09:22:08.988Z,1023.49
2018-11-04T09:23:08.989Z,1023.18
2018-11-04T09:24:08.983Z,1022.94
2018-11-04T09:25:08.985Z,1023.26
2018-11-04T09:26:09.007Z,1023.64
2018-11-04T09:27:08.990Z,1023.61
2018-11-04T09:28:08.983Z,1023.57
2018-11-04T09:29:09.086Z,1024.4
2018-11-04T09:30:09.000Z,1024.55
2018-11-04T09:31:08.999Z,1024.92
2018-11-04T09:32:08.998Z,1025
2018-11-04T09:33:09.013Z,1025.14
2018-11-04T09:34:09.003Z,1025.45
2018-11-04T09:35:09.179Z,1025.06
2018-11-04T09:36:09.094Z,1025.68
2018-11-04T09:37:09.011Z,1026.13
2018-11-04T09:38:09.006Z,1026.59
2018-11-04T09:39:09.023Z,1026.81
2018-11-04T09:40:08.990Z,1027.47
2018-11-04T09:41:08.999Z,1027.84
2018-11-04T09:42:09.016Z,1028.19
2018-11-04T09:43:09.035Z,1028.75
2018-11-04T09:44:09.043Z,1029.32
2018-11-04T09:45:09.011Z,1029.48
2018-11-04T09:46:09.028Z,1030.18
2018-11-04T09:47:09.032Z,1030.38
2018-11-04T09:48:09.033Z,1030.84
2018-11-04T09:49:09.044Z,1031.46
2018-11-04T09:50:09.111Z,1031.64
2018-11-04T09:51:09.069Z,1032.01
2018-11-04T09:52:09.029Z,1032.62
2018-11-04T09:53:09.102Z,1033.18
2018-11-04T09:54:09.035Z,1033.57
2018-11-04T09:55:09.041Z,1033.81
2018-11-04T09:56:09.045Z,1033.69
2018-11-04T09:57:09.054Z,1033.88
2018-11-04T09:58:09.037Z,1034.06
2018-11-04T09:59:09.053Z,1034.29
2018-11-04T10:00:09.051Z,1034.06
2018-11-04T10:01:09.053Z,1034.1
2018-11-04T10:02:09.063Z,1033.92
2018-11-04T10:03:09.065Z,1034.44
2018-11-04T10:04:09.079Z,1034.71
2018-11-04T10:05:09.052Z,1034.12
2018-11-04T10:06:09.080Z,1034.54
2018-11-04T10:07:09.154Z,1034.57
2018-11-04T10:08:09.044Z,1034.46
2018-11-04T10:09:09.040Z,1034.17
2018-11-04T10:10:09.080Z,1034.43
2018-11-04T10:11:09.077Z,1034.25
2018-11-04T10:12:09.092Z,1034.27
2018-11-04T10:13:09.081Z,1034.19
2018-11-04T10:14:09.060Z,1034.52
2018-11-04T10:15:09.078Z,1033.95
2018-11-04T10:16:09.109Z,1033.63
2018-11-04T10:17:09.423Z,1033.33
2018-11-04T10:18:09.125Z,1033.15
2018-11-04T10:19:09.333Z,1032.58
2018-11-04T10:20:09.472Z,1032.39
2018-11-04T10:21:09.560Z,1032.45
2018-11-04T10:22:26.236Z,1032.42
2018-11-04T10:23:26.834Z,1032.49
2018-11-04T10:24:26.236Z,1032.39
2018-11-04T10:25:26.219Z,1032.24
2018-11-04T10:26:26.223Z,1032.13
2018-11-04T10:27:26.246Z,1031.8
2018-11-04T10:28:26.224Z,1032.1
2018-11-04T10:29:26.265Z,1032.12
2018-11-04T10:30:26.291Z,1032.45
2018-11-04T10:31:26.213Z,1032.4
2018-11-04T10:32:26.236Z,1032.56
2018-11-04T10:33:26.300Z,1032.78
2018-11-04T10:34:26.229Z,1033.09
2018-11-04T10:35:26.236Z,1033.09
2018-11-04T10:36:26.230Z,1033.23
2018-11-04T10:37:26.383Z,1033.73
2018-11-04T10:38:26.256Z,1034
2018-11-04T10:39:26.262Z,1034.16
2018-11-04T10:40:26.249Z,1034.34
2018-11-04T10:41:26.245Z,1035.07
2018-11-04T10:42:26.297Z,1035.04
2018-11-04T10:43:26.226Z,1035.32
2018-11-04T10:44:26.242Z,1035.53
2018-11-04T10:45:26.270Z,1035.84
2018-11-04T10:46:26.278Z,1035.98
2018-11-04T10:47:26.279Z,1035.87
2018-11-04T10:48:26.266Z,1036.42
2018-11-04T10:49:26.284Z,1036.41
2018-11-04T10:50:26.256Z,1036.61
2018-11-04T10:51:26.257Z,1036.29
2018-11-04T10:52:26.632Z,1036.51
2018-11-04T10:53:26.268Z,1037.21
2018-11-04T10:54:26.274Z,1037.17
2018-11-04T10:55:26.271Z,1037.89
2018-11-04T10:56:26.273Z,1038.15
2018-11-04T10:57:26.283Z,1038.36
2018-11-04T10:58:26.260Z,1038.6
2018-11-04T10:59:26.271Z,1038.96
2018-11-04T11:00:26.297Z,1039.23
2018-11-04T11:01:26.303Z,1039.12
2018-11-04T11:02:26.296Z,1039.11
2018-11-04T11:03:26.261Z,1038.87
2018-11-04T11:04:26.333Z,1038.18
2018-11-04T11:05:26.265Z,1037.64
2018-11-04T11:06:26.276Z,1036.89
2018-11-04T11:07:26.319Z,1036.61
2018-11-04T11:08:26.292Z,1036.13
2018-11-04T11:12:55.174Z,1035.72
2018-11-04T11:13:55.177Z,1035.59
2018-11-04T11:14:55.266Z,1035.5
2018-11-04T11:15:55.155Z,1035.58
2018-11-04T11:16:55.161Z,1035
2018-11-04T11:17:55.162Z,1034.86
2018-11-04T11:18:55.180Z,1034.73
2018-11-04T11:19:55.147Z,1034.77
2018-11-04T11:20:55.182Z,1034.69
2018-11-04T11:21:55.172Z,1034.88
2018-11-04T11:22:55.338Z,1034.69
2018-11-04T11:23:55.199Z,1034.74
2018-11-04T11:24:55.177Z,1034.87
2018-11-04T11:29:24.219Z,1035.92
2018-11-04T11:30:24.216Z,1036.13
2018-11-04T11:31:24.235Z,1036.2
2018-11-04T11:32:24.220Z,1036.45
2018-11-04T11:33:24.253Z,1036.84
2018-11-04T11:37:53.855Z,1038.63
2018-11-04T11:44:32.323Z,1040.7
2018-11-04T11:45:32.293Z,1041.01
2018-11-04T11:46:32.309Z,1041.53
2018-11-04T11:47:32.322Z,1041.91
2018-11-04T11:48:32.312Z,1042.38
2018-11-04T11:49:32.326Z,1042.7
2018-11-04T11:50:32.314Z,1043.03
2018-11-04T11:51:32.297Z,1043.64
2018-11-04T11:52:32.353Z,1043.75
2018-11-04T11:53:32.302Z,1044.02
2018-11-04T11:54:32.311Z,1044.32
2018-11-04T11:55:32.901Z,1044.4
2018-11-04T11:56:32.321Z,1044.85
2018-11-04T11:57:32.321Z,1045.04
2018-11-04T11:58:32.332Z,1045.52
2018-11-04T11:59:32.330Z,1045.41
2018-11-04T12:00:32.312Z,1045.29
2018-11-04T12:01:32.333Z,1045.21
2018-11-04T12:02:32.341Z,1045.36
2018-11-04T12:03:32.345Z,1045.37
2018-11-04T12:04:32.317Z,1045.55
2018-11-04T12:05:32.341Z,1045.35
2018-11-04T12:06:32.453Z,1045.38
2018-11-04T12:07:33.005Z,1045.2
2018-11-04T12:08:32.346Z,1045.38
2018-11-04T12:09:32.324Z,1045.08
2018-11-04T12:10:32.356Z,1044.52
2018-11-04T12:11:32.385Z,1044.04
2018-11-04T12:12:32.323Z,1043.46
2018-11-04T12:13:32.359Z,1043.3
2018-11-04T12:14:32.330Z,1042.85
2018-11-04T12:15:32.342Z,1042.67
2018-11-04T12:16:32.451Z,1042.61
2018-11-04T12:17:32.354Z,1042.58
2018-11-04T12:18:32.348Z,1042.55
2018-11-04T12:19:32.364Z,1042.99
2018-11-04T12:20:32.342Z,1043
2018-11-04T12:21:32.365Z,1043.68
2018-11-04T12:22:32.357Z,1043.84
2018-11-04T12:23:32.424Z,1043.85
2018-11-04T12:24:32.350Z,1044.06
2018-11-04T12:25:32.375Z,1044.37
2018-11-04T12:26:32.344Z,1044.57
2018-11-04T12:27:32.382Z,1045.06
2018-11-04T12:28:32.409Z,1045.14
2018-11-04T12:29:32.373Z,1045.35
2018-11-04T12:30:32.363Z,1045.67
2018-11-04T12:31:32.342Z,1045.61
2018-11-04T12:32:32.352Z,1046.06
2018-11-04T12:33:32.357Z,1045.96
2018-11-04T12:34:32.389Z,1045.64
2018-11-04T12:35:32.378Z,1045.67
2018-11-04T12:36:32.376Z,1045.34
2018-11-04T12:37:32.363Z,1044.8
2018-11-04T12:38:32.376Z,1044.55
2018-11-04T12:39:32.418Z,1044.33
2018-11-04T12:40:32.359Z,1044.3
2018-11-04T12:41:32.391Z,1043.62
2018-11-04T12:42:32.373Z,1043.08
2018-11-04T12:43:32.401Z,1042.86
2018-11-04T12:44:32.395Z,1042.77
2018-11-04T12:45:32.429Z,1042.34
2018-11-04T12:46:32.397Z,1041.73
2018-11-04T12:47:32.395Z,1041.69
2018-11-04T12:48:32.718Z,1041.23
2018-11-04T12:49:32.421Z,1041.04
2018-11-04T12:50:32.434Z,1041.2
2018-11-04T12:51:32.395Z,1041.34
2018-11-04T12:52:32.376Z,1041.23
2018-11-04T12:53:32.403Z,1041.49
2018-11-04T12:54:32.395Z,1041.57